TOM79G EGGW-LOWI
Flight info
| Callsign | TOM79G |
|---|---|
| Flight time | N/A |
| Altitude | 37000 |
| Route | MATCH Q295 BRAIN P44 DAGGA M85 ITVIP L10 DVR UL9 KONAN DCT KOK DCT KOMOB DCT PITES DCT KRH DCT TEDGO DCT UTABA M738 MADEB MADEB1B |
| Aircraft | B738/M-SDE2E3FGHIRWXY/LB1 |
Departure
| Time | 2026-05-01 09:36 |
|---|---|
| Airport | London Luton Airport (EGGW) |
Arrival
| Time | N/A |
|---|---|
| Airport | Innsbruck Airport (LOWI) |
| Time | Latitude | Longitude | Altitude | Speed | Heading |
|---|---|---|---|---|---|
| 2026-05-01 09:19 | 51.88153 | -0.37431 | 516 ft | 0 kts | 161° |
| 2026-05-01 09:22 | 51.88154 | -0.37431 | 516 ft | 0 kts | 162° |
| 2026-05-01 09:23 | 51.88153 | -0.37431 | 516 ft | 0 kts | 161° |
| 2026-05-01 09:28 | 51.88157 | -0.37433 | 543 ft | 3 kts | 161° |
| 2026-05-01 09:28 | 51.88180 | -0.37445 | 506 ft | 2 kts | 161° |
| 2026-05-01 09:28 | 51.88200 | -0.37450 | 515 ft | 4 kts | 218° |
| 2026-05-01 09:29 | 51.88215 | -0.37401 | 515 ft | 0 kts | 251° |
| 2026-05-01 09:31 | 51.88204 | -0.37453 | 515 ft | 8 kts | 251° |
| 2026-05-01 09:31 | 51.88210 | -0.37547 | 515 ft | 8 kts | 281° |
| 2026-05-01 09:31 | 51.88161 | -0.37719 | 522 ft | 11 kts | 239° |
| 2026-05-01 09:32 | 51.88088 | -0.37846 | 522 ft | 18 kts | 218° |
| 2026-05-01 09:32 | 51.87862 | -0.38000 | 522 ft | 18 kts | 156° |
| 2026-05-01 09:32 | 51.87782 | -0.37854 | 522 ft | 18 kts | 114° |
| 2026-05-01 09:33 | 51.87730 | -0.37676 | 520 ft | 18 kts | 115° |
| 2026-05-01 09:33 | 51.87666 | -0.37496 | 520 ft | 18 kts | 138° |
| 2026-05-01 09:33 | 51.87488 | -0.37631 | 522 ft | 17 kts | 256° |
| 2026-05-01 09:34 | 51.87457 | -0.37814 | 521 ft | 17 kts | 253° |
| 2026-05-01 09:34 | 51.87423 | -0.37991 | 523 ft | 16 kts | 241° |
| 2026-05-01 09:34 | 51.87241 | -0.38151 | 522 ft | 15 kts | 240° |
| 2026-05-01 09:35 | 51.87238 | -0.38287 | 521 ft | 9 kts | 286° |
| 2026-05-01 09:35 | 51.87218 | -0.38260 | 521 ft | 5 kts | 75° |
| 2026-05-01 09:35 | 51.87243 | -0.38115 | 523 ft | 43 kts | 74° |
| 2026-05-01 09:36 | 51.87397 | -0.37221 | 520 ft | 120 kts | 73° |
| 2026-05-01 09:36 | 51.87670 | -0.35626 | 647 ft | 169 kts | 79° |
| 2026-05-01 09:36 | 51.87985 | -0.33753 | 1468 ft | 180 kts | 78° |
| 2026-05-01 09:36 | 51.88341 | -0.31707 | 2146 ft | 201 kts | 79° |
| 2026-05-01 09:37 | 51.88740 | -0.29382 | 2401 ft | 227 kts | 78° |
| 2026-05-01 09:37 | 51.89614 | -0.23913 | 3275 ft | 264 kts | 89° |
| 2026-05-01 09:37 | 51.89195 | -0.21105 | 4144 ft | 258 kts | 126° |
| 2026-05-01 09:38 | 51.86168 | -0.18289 | 5669 ft | 259 kts | 161° |
| 2026-05-01 09:38 | 51.84472 | -0.17247 | 6531 ft | 263 kts | 160° |
| 2026-05-01 09:38 | 51.82765 | -0.16142 | 7335 ft | 266 kts | 159° |
| 2026-05-01 09:39 | 51.79352 | -0.13794 | 9055 ft | 268 kts | 158° |
| 2026-05-01 09:39 | 51.77636 | -0.12557 | 9851 ft | 273 kts | 153° |
| 2026-05-01 09:39 | 51.76179 | -0.10568 | 10542 ft | 283 kts | 128° |
| 2026-05-01 09:40 | 51.75381 | -0.07522 | 10744 ft | 314 kts | 99° |
| 2026-05-01 09:40 | 51.75770 | 0.00005 | 11373 ft | 353 kts | 84° |
| 2026-05-01 09:40 | 51.76153 | 0.03948 | 12099 ft | 357 kts | 84° |
| 2026-05-01 09:41 | 51.76514 | 0.07919 | 12849 ft | 359 kts | 85° |
| 2026-05-01 09:41 | 51.77182 | 0.15991 | 14256 ft | 367 kts | 86° |
| 2026-05-01 09:41 | 51.77500 | 0.20090 | 14893 ft | 369 kts | 89° |
| 2026-05-01 09:42 | 51.77277 | 0.24166 | 15498 ft | 364 kts | 111° |
| 2026-05-01 09:42 | 51.76182 | 0.27805 | 16170 ft | 359 kts | 129° |
| 2026-05-01 09:42 | 51.72783 | 0.33715 | 17431 ft | 363 kts | 137° |
| 2026-05-01 09:43 | 51.69185 | 0.39511 | 18646 ft | 369 kts | 137° |
| 2026-05-01 09:43 | 51.67366 | 0.42455 | 19183 ft | 371 kts | 137° |
| 2026-05-01 09:43 | 51.65543 | 0.45423 | 19733 ft | 374 kts | 137° |
| 2026-05-01 09:44 | 51.61874 | 0.51426 | 20830 ft | 378 kts | 137° |
| 2026-05-01 09:44 | 51.60026 | 0.54453 | 21359 ft | 381 kts | 137° |
| 2026-05-01 09:44 | 51.58185 | 0.57469 | 21852 ft | 384 kts | 137° |
| 2026-05-01 09:45 | 51.56310 | 0.60536 | 22346 ft | 387 kts | 137° |
| 2026-05-01 09:45 | 51.52510 | 0.66745 | 23314 ft | 392 kts | 137° |
| 2026-05-01 09:45 | 51.50590 | 0.69876 | 23790 ft | 395 kts | 137° |
| 2026-05-01 09:46 | 51.48655 | 0.73028 | 24189 ft | 397 kts | 137° |
| 2026-05-01 09:46 | 51.46711 | 0.76189 | 24594 ft | 399 kts | 137° |
| 2026-05-01 09:46 | 51.44758 | 0.79362 | 24985 ft | 401 kts | 137° |
| 2026-05-01 09:46 | 51.42790 | 0.82554 | 25364 ft | 403 kts | 137° |
| 2026-05-01 09:47 | 51.40812 | 0.85760 | 25740 ft | 406 kts | 137° |
| 2026-05-01 09:47 | 51.38821 | 0.88981 | 26115 ft | 408 kts | 137° |
| 2026-05-01 09:47 | 51.36819 | 0.92217 | 26481 ft | 410 kts | 137° |
| 2026-05-01 09:47 | 51.34807 | 0.95466 | 26840 ft | 412 kts | 137° |
| 2026-05-01 09:48 | 51.32777 | 0.98739 | 27087 ft | 417 kts | 137° |
| 2026-05-01 09:48 | 51.30722 | 1.02045 | 27368 ft | 420 kts | 137° |
| 2026-05-01 09:48 | 51.28705 | 1.05440 | 27736 ft | 423 kts | 132° |
| 2026-05-01 09:48 | 51.26983 | 1.09274 | 28086 ft | 427 kts | 125° |
| 2026-05-01 09:49 | 51.25398 | 1.13299 | 28425 ft | 429 kts | 125° |
| 2026-05-01 09:49 | 51.24347 | 1.15974 | 28629 ft | 431 kts | 125° |
| 2026-05-01 09:49 | 51.22192 | 1.21394 | 29022 ft | 434 kts | 125° |
| 2026-05-01 09:49 | 51.20555 | 1.25447 | 29321 ft | 436 kts | 126° |
| 2026-05-01 09:50 | 51.18904 | 1.29511 | 29628 ft | 438 kts | 125° |
| 2026-05-01 09:50 | 51.17457 | 1.33811 | 29903 ft | 444 kts | 116° |
| 2026-05-01 09:50 | 51.16448 | 1.38467 | 30278 ft | 447 kts | 108° |
| 2026-05-01 09:50 | 51.15844 | 1.43332 | 30665 ft | 449 kts | 99° |
| 2026-05-01 09:51 | 51.15598 | 1.48275 | 31104 ft | 447 kts | 97° |
| 2026-05-01 09:51 | 51.15392 | 1.53205 | 31433 ft | 446 kts | 97° |
| 2026-05-01 09:51 | 51.15185 | 1.58149 | 31690 ft | 447 kts | 97° |
| 2026-05-01 09:51 | 51.14965 | 1.63094 | 31978 ft | 447 kts | 98° |
| 2026-05-01 09:52 | 51.14733 | 1.68026 | 32320 ft | 446 kts | 98° |
| 2026-05-01 09:52 | 51.14492 | 1.72933 | 32671 ft | 444 kts | 98° |
| 2026-05-01 09:52 | 51.14245 | 1.77840 | 32973 ft | 444 kts | 98° |
| 2026-05-01 09:52 | 51.13994 | 1.82738 | 33253 ft | 444 kts | 98° |
| 2026-05-01 09:53 | 51.13742 | 1.87638 | 33553 ft | 444 kts | 98° |
| 2026-05-01 09:53 | 51.13490 | 1.92533 | 33833 ft | 443 kts | 98° |
| 2026-05-01 09:53 | 51.13236 | 1.97413 | 34083 ft | 443 kts | 98° |
| 2026-05-01 09:53 | 51.13070 | 2.00574 | 34254 ft | 443 kts | 98° |
| 2026-05-01 09:54 | 51.12723 | 2.07131 | 34586 ft | 443 kts | 98° |
| 2026-05-01 09:54 | 51.12463 | 2.12010 | 34823 ft | 442 kts | 98° |
| 2026-05-01 09:54 | 51.12201 | 2.16886 | 35036 ft | 442 kts | 98° |
| 2026-05-01 09:54 | 51.11937 | 2.21762 | 35252 ft | 442 kts | 98° |
| 2026-05-01 09:55 | 51.11671 | 2.26640 | 35489 ft | 442 kts | 98° |
| 2026-05-01 09:55 | 51.11491 | 2.29927 | 35642 ft | 442 kts | 98° |
| 2026-05-01 09:55 | 51.11223 | 2.34795 | 35847 ft | 442 kts | 98° |
| 2026-05-01 09:55 | 51.10952 | 2.39660 | 36046 ft | 441 kts | 97° |
| 2026-05-01 09:56 | 51.10680 | 2.44525 | 36261 ft | 441 kts | 97° |
| 2026-05-01 09:56 | 51.10410 | 2.49316 | 36472 ft | 441 kts | 97° |
| 2026-05-01 09:56 | 51.10135 | 2.54168 | 36672 ft | 440 kts | 97° |
| 2026-05-01 09:56 | 51.09857 | 2.59020 | 36875 ft | 440 kts | 97° |
| 2026-05-01 09:57 | 51.09395 | 2.63813 | 37060 ft | 438 kts | 106° |
| 2026-05-01 09:57 | 51.08474 | 2.68400 | 37237 ft | 435 kts | 115° |
| 2026-05-01 09:57 | 51.05700 | 2.76982 | 37263 ft | 439 kts | 120° |
| 2026-05-01 09:58 | 51.02763 | 2.85576 | 37245 ft | 445 kts | 120° |
| 2026-05-01 09:58 | 50.99816 | 2.94273 | 37253 ft | 449 kts | 120° |
| 2026-05-01 09:59 | 50.96865 | 3.03046 | 37252 ft | 451 kts | 120° |
| 2026-05-01 09:59 | 50.93910 | 3.11830 | 37255 ft | 451 kts | 120° |
| 2026-05-01 10:00 | 50.90953 | 3.20593 | 37260 ft | 450 kts | 120° |
| 2026-05-01 10:00 | 50.87999 | 3.29316 | 37251 ft | 449 kts | 119° |
| 2026-05-01 10:01 | 50.85045 | 3.38005 | 37261 ft | 447 kts | 119° |
| 2026-05-01 10:01 | 50.82113 | 3.46596 | 37264 ft | 446 kts | 120° |
| 2026-05-01 10:02 | 50.79161 | 3.55218 | 37259 ft | 446 kts | 120° |
| 2026-05-01 10:02 | 50.76207 | 3.63818 | 37263 ft | 445 kts | 120° |
| 2026-05-01 10:03 | 50.73252 | 3.72391 | 37265 ft | 445 kts | 120° |
| 2026-05-01 10:03 | 50.70294 | 3.80944 | 37268 ft | 444 kts | 120° |
| 2026-05-01 10:04 | 50.67326 | 3.89495 | 37262 ft | 444 kts | 120° |
| 2026-05-01 10:04 | 50.64357 | 3.98023 | 37272 ft | 444 kts | 120° |
| 2026-05-01 10:05 | 50.61380 | 4.06540 | 37273 ft | 444 kts | 120° |
| 2026-05-01 10:05 | 50.58392 | 4.15066 | 37272 ft | 445 kts | 120° |
| 2026-05-01 10:06 | 50.55414 | 4.23580 | 37290 ft | 444 kts | 120° |
| 2026-05-01 10:06 | 50.52424 | 4.32085 | 37290 ft | 444 kts | 120° |
| 2026-05-01 10:07 | 50.49416 | 4.40566 | 37295 ft | 444 kts | 120° |
| 2026-05-01 10:07 | 50.46406 | 4.49028 | 37289 ft | 444 kts | 120° |
| 2026-05-01 10:08 | 50.41884 | 4.61694 | 37300 ft | 443 kts | 120° |
| 2026-05-01 10:09 | 50.38860 | 4.70131 | 37276 ft | 444 kts | 120° |
| 2026-05-01 10:09 | 50.35827 | 4.78569 | 37287 ft | 445 kts | 120° |
| 2026-05-01 10:10 | 50.32782 | 4.87014 | 37285 ft | 446 kts | 120° |
| 2026-05-01 10:10 | 50.28193 | 4.99688 | 37280 ft | 446 kts | 120° |
| 2026-05-01 10:11 | 50.25129 | 5.08116 | 37277 ft | 446 kts | 120° |
| 2026-05-01 10:11 | 50.22054 | 5.16545 | 37286 ft | 447 kts | 120° |
| 2026-05-01 10:12 | 50.18969 | 5.24974 | 37301 ft | 448 kts | 120° |
| 2026-05-01 10:13 | 50.14310 | 5.37637 | 37296 ft | 449 kts | 120° |
| 2026-05-01 10:13 | 50.11251 | 5.46132 | 37294 ft | 450 kts | 119° |
| 2026-05-01 10:14 | 50.06717 | 5.58940 | 37302 ft | 451 kts | 119° |
| 2026-05-01 10:14 | 50.03670 | 5.67476 | 37307 ft | 451 kts | 119° |
| 2026-05-01 10:15 | 50.00609 | 5.76001 | 37298 ft | 452 kts | 119° |
| 2026-05-01 10:15 | 49.97539 | 5.84518 | 37304 ft | 451 kts | 119° |
| 2026-05-01 10:16 | 49.94464 | 5.93020 | 37301 ft | 451 kts | 119° |
| 2026-05-01 10:17 | 49.89840 | 6.05756 | 37307 ft | 452 kts | 119° |
| 2026-05-01 10:17 | 49.85213 | 6.18439 | 37304 ft | 452 kts | 119° |
| 2026-05-01 10:18 | 49.80556 | 6.31142 | 37310 ft | 452 kts | 120° |
| 2026-05-01 10:19 | 49.77437 | 6.39618 | 37306 ft | 453 kts | 119° |
| 2026-05-01 10:19 | 49.74322 | 6.48055 | 37299 ft | 448 kts | 119° |
| 2026-05-01 10:20 | 49.69788 | 6.60745 | 37309 ft | 454 kts | 117° |
| 2026-05-01 10:20 | 49.66840 | 6.69422 | 37306 ft | 457 kts | 117° |
| 2026-05-01 10:21 | 49.62363 | 6.82477 | 37290 ft | 460 kts | 117° |